sensor_id;sensor_type;location;lat;lon;timestamp;temperature;humidity
10192;DHT22;17580;50.850;4.504;2022-10-14T00:02:15;14.70;99.90
10192;DHT22;17580;50.850;4.504;2022-10-14T00:04:41;14.70;99.90
10192;DHT22;17580;50.850;4.504;2022-10-14T00:07:08;14.70;99.90
10192;DHT22;17580;50.850;4.504;2022-10-14T00:09:35;14.70;99.90
10192;DHT22;17580;50.850;4.504;2022-10-14T00:12:05;14.70;99.90
10192;DHT22;17580;50.850;4.504;2022-10-14T00:14:32;14.70;99.90
10192;DHT22;17580;50.850;4.504;2022-10-14T00:16:59;14.60;99.90
10192;DHT22;17580;50.850;4.504;2022-10-14T00:19:26;14.60;99.90
10192;DHT22;17580;50.850;4.504;2022-10-14T00:21:53;14.70;99.90
10192;DHT22;17580;50.850;4.504;2022-10-14T00:24:20;14.70;99.90
10192;DHT22;17580;50.850;4.504;2022-10-14T00:26:47;14.70;99.90
10192;DHT22;17580;50.850;4.504;2022-10-14T00:29:16;14.80;99.90
10192;DHT22;17580;50.850;4.504;2022-10-14T00:31:44;14.80;99.90
10192;DHT22;17580;50.850;4.504;2022-10-14T00:34:11;14.80;99.90
10192;DHT22;17580;50.850;4.504;2022-10-14T00:36:41;14.80;99.90
10192;DHT22;17580;50.850;4.504;2022-10-14T00:39:08;14.80;99.90
10192;DHT22;17580;50.850;4.504;2022-10-14T00:41:35;14.80;99.90
10192;DHT22;17580;50.850;4.504;2022-10-14T00:44:04;14.80;99.90
10192;DHT22;17580;50.850;4.504;2022-10-14T00:46:34;14.80;99.90
10192;DHT22;17580;50.850;4.504;2022-10-14T00:49:07;14.80;99.90
10192;DHT22;17580;50.850;4.504;2022-10-14T00:51:36;14.70;99.90
10192;DHT22;17580;50.850;4.504;2022-10-14T00:54:04;14.70;99.90
10192;DHT22;17580;50.850;4.504;2022-10-14T00:56:32;14.70;99.90
10192;DHT22;17580;50.850;4.504;2022-10-14T00:59:02;14.70;99.90
10192;DHT22;17580;50.850;4.504;2022-10-14T01:01:29;14.70;99.90
10192;DHT22;17580;50.850;4.504;2022-10-14T01:03:57;14.70;99.90
10192;DHT22;17580;50.850;4.504;2022-10-14T01:06:39;14.70;99.90
10192;DHT22;17580;50.850;4.504;2022-10-14T01:09:13;14.70;99.90
10192;DHT22;17580;50.850;4.504;2022-10-14T01:11:50;14.70;99.90
10192;DHT22;17580;50.850;4.504;2022-10-14T01:14:25;14.70;99.90
10192;DHT22;17580;50.850;4.504;2022-10-14T01:17:01;14.70;99.90
10192;DHT22;17580;50.850;4.504;2022-10-14T01:20:15;14.70;99.90
10192;DHT22;17580;50.850;4.504;2022-10-14T01:22:57;14.70;99.90
10192;DHT22;17580;50.850;4.504;2022-10-14T01:25:33;14.70;99.90
10192;DHT22;17580;50.850;4.504;2022-10-14T01:28:19;14.60;99.90
10192;DHT22;17580;50.850;4.504;2022-10-14T01:30:57;14.70;99.90
10192;DHT22;17580;50.850;4.504;2022-10-14T01:33:27;14.70;99.90
10192;DHT22;17580;50.850;4.504;2022-10-14T01:36:05;14.60;99.90
10192;DHT22;17580;50.850;4.504;2022-10-14T01:38:36;14.70;99.90
10192;DHT22;17580;50.850;4.504;2022-10-14T01:41:08;14.70;99.90
10192;DHT22;17580;50.850;4.504;2022-10-14T01:43:37;14.60;99.90
10192;DHT22;17580;50.850;4.504;2022-10-14T01:46:07;14.60;99.90
10192;DHT22;17580;50.850;4.504;2022-10-14T01:48:39;14.70;99.90
10192;DHT22;17580;50.850;4.504;2022-10-14T01:51:11;14.70;99.90
10192;DHT22;17580;50.850;4.504;2022-10-14T01:53:42;14.70;99.90
10192;DHT22;17580;50.850;4.504;2022-10-14T01:56:13;14.70;99.90
10192;DHT22;17580;50.850;4.504;2022-10-14T01:58:42;14.70;99.90
10192;DHT22;17580;50.850;4.504;2022-10-14T02:01:12;14.70;99.90
10192;DHT22;17580;50.850;4.504;2022-10-14T02:03:40;14.70;99.90
10192;DHT22;17580;50.850;4.504;2022-10-14T02:06:11;14.70;99.90
10192;DHT22;17580;50.850;4.504;2022-10-14T02:08:50;14.70;99.90
10192;DHT22;17580;50.850;4.504;2022-10-14T02:11:21;14.70;99.90
10192;DHT22;17580;50.850;4.504;2022-10-14T02:13:57;14.70;99.90
10192;DHT22;17580;50.850;4.504;2022-10-14T02:16:35;14.70;99.90
10192;DHT22;17580;50.850;4.504;2022-10-14T02:19:09;14.80;99.90
10192;DHT22;17580;50.850;4.504;2022-10-14T02:21:47;14.70;99.90
10192;DHT22;17580;50.850;4.504;2022-10-14T02:24:20;14.80;99.90
10192;DHT22;17580;50.850;4.504;2022-10-14T02:26:49;14.80;99.90
10192;DHT22;17580;50.850;4.504;2022-10-14T02:29:18;14.70;99.90
10192;DHT22;17580;50.850;4.504;2022-10-14T02:31:47;14.80;99.90
10192;DHT22;17580;50.850;4.504;2022-10-14T02:34:18;14.80;99.90
10192;DHT22;17580;50.850;4.504;2022-10-14T02:36:47;14.70;99.90
10192;DHT22;17580;50.850;4.504;2022-10-14T02:39:18;14.70;99.90
10192;DHT22;17580;50.850;4.504;2022-10-14T02:41:46;14.70;99.90
10192;DHT22;17580;50.850;4.504;2022-10-14T02:44:13;14.80;99.90
10192;DHT22;17580;50.850;4.504;2022-10-14T02:46:40;14.80;99.90
10192;DHT22;17580;50.850;4.504;2022-10-14T02:49:09;14.80;99.90
10192;DHT22;17580;50.850;4.504;2022-10-14T02:51:37;14.80;99.90
10192;DHT22;17580;50.850;4.504;2022-10-14T02:54:04;14.80;99.90
10192;DHT22;17580;50.850;4.504;2022-10-14T02:56:30;14.80;99.90
10192;DHT22;17580;50.850;4.504;2022-10-14T02:58:57;14.80;99.90
10192;DHT22;17580;50.850;4.504;2022-10-14T03:01:24;14.70;99.90
10192;DHT22;17580;50.850;4.504;2022-10-14T03:03:51;14.80;99.90
10192;DHT22;17580;50.850;4.504;2022-10-14T03:06:20;14.80;99.90
10192;DHT22;17580;50.850;4.504;2022-10-14T03:08:46;14.80;99.90
10192;DHT22;17580;50.850;4.504;2022-10-14T03:11:13;14.80;99.90
10192;DHT22;17580;50.850;4.504;2022-10-14T03:13:40;14.70;99.90
10192;DHT22;17580;50.850;4.504;2022-10-14T03:16:07;14.70;99.90
10192;DHT22;17580;50.850;4.504;2022-10-14T03:18:34;14.70;99.90
10192;DHT22;17580;50.850;4.504;2022-10-14T03:21:01;14.70;99.90
10192;DHT22;17580;50.850;4.504;2022-10-14T03:23:29;14.70;99.90
10192;DHT22;17580;50.850;4.504;2022-10-14T03:25:56;14.80;99.90
10192;DHT22;17580;50.850;4.504;2022-10-14T03:28:23;14.80;99.90
10192;DHT22;17580;50.850;4.504;2022-10-14T03:30:50;14.80;99.90
10192;DHT22;17580;50.850;4.504;2022-10-14T03:33:17;14.80;99.90
10192;DHT22;17580;50.850;4.504;2022-10-14T03:35:44;14.70;99.90
10192;DHT22;17580;50.850;4.504;2022-10-14T03:38:11;14.70;99.90
10192;DHT22;17580;50.850;4.504;2022-10-14T03:40:39;14.70;99.90
10192;DHT22;17580;50.850;4.504;2022-10-14T03:43:06;14.80;99.90
10192;DHT22;17580;50.850;4.504;2022-10-14T03:45:33;14.80;99.90
10192;DHT22;17580;50.850;4.504;2022-10-14T03:48:00;14.80;99.90
10192;DHT22;17580;50.850;4.504;2022-10-14T03:50:27;14.80;99.90
10192;DHT22;17580;50.850;4.504;2022-10-14T03:52:54;14.80;99.90
10192;DHT22;17580;50.850;4.504;2022-10-14T03:55:21;14.70;99.90
10192;DHT22;17580;50.850;4.504;2022-10-14T03:57:49;14.80;99.90
10192;DHT22;17580;50.850;4.504;2022-10-14T04:00:16;14.80;99.90
10192;DHT22;17580;50.850;4.504;2022-10-14T04:02:43;14.70;99.90
10192;DHT22;17580;50.850;4.504;2022-10-14T04:05:10;14.70;99.90
10192;DHT22;17580;50.850;4.504;2022-10-14T04:07:37;14.70;99.90
10192;DHT22;17580;50.850;4.504;2022-10-14T04:10:05;14.70;99.90
10192;DHT22;17580;50.850;4.504;2022-10-14T04:12:32;14.70;99.90
10192;DHT22;17580;50.850;4.504;2022-10-14T04:15:01;14.70;99.90
10192;DHT22;17580;50.850;4.504;2022-10-14T04:17:28;14.70;99.90
10192;DHT22;17580;50.850;4.504;2022-10-14T04:19:55;14.70;99.90
10192;DHT22;17580;50.850;4.504;2022-10-14T04:22:22;14.70;99.90
10192;DHT22;17580;50.850;4.504;2022-10-14T04:24:49;14.70;99.90
10192;DHT22;17580;50.850;4.504;2022-10-14T04:27:16;14.70;99.90
10192;DHT22;17580;50.850;4.504;2022-10-14T04:29:43;14.70;99.90
10192;DHT22;17580;50.850;4.504;2022-10-14T04:32:11;14.80;99.90
10192;DHT22;17580;50.850;4.504;2022-10-14T04:34:38;14.70;99.90
10192;DHT22;17580;50.850;4.504;2022-10-14T04:37:05;14.80;99.90
10192;DHT22;17580;50.850;4.504;2022-10-14T04:39:32;14.70;99.90
10192;DHT22;17580;50.850;4.504;2022-10-14T04:41:59;14.70;99.90
10192;DHT22;17580;50.850;4.504;2022-10-14T04:44:26;14.70;99.90
10192;DHT22;17580;50.850;4.504;2022-10-14T04:46:53;14.70;99.90
10192;DHT22;17580;50.850;4.504;2022-10-14T04:49:21;14.70;99.90
10192;DHT22;17580;50.850;4.504;2022-10-14T04:51:48;14.70;99.90
10192;DHT22;17580;50.850;4.504;2022-10-14T04:54:15;14.70;99.90
10192;DHT22;17580;50.850;4.504;2022-10-14T04:56:42;14.70;99.90
10192;DHT22;17580;50.850;4.504;2022-10-14T04:59:10;14.70;99.90
10192;DHT22;17580;50.850;4.504;2022-10-14T05:01:38;14.70;99.90
10192;DHT22;17580;50.850;4.504;2022-10-14T05:04:05;14.70;99.90
10192;DHT22;17580;50.850;4.504;2022-10-14T05:06:33;14.70;99.90
10192;DHT22;17580;50.850;4.504;2022-10-14T05:09:02;14.70;99.90
10192;DHT22;17580;50.850;4.504;2022-10-14T05:11:29;14.70;99.90
10192;DHT22;17580;50.850;4.504;2022-10-14T05:13:55;14.70;99.90
10192;DHT22;17580;50.850;4.504;2022-10-14T05:16:22;14.70;99.90
10192;DHT22;17580;50.850;4.504;2022-10-14T05:18:49;14.80;99.90
10192;DHT22;17580;50.850;4.504;2022-10-14T05:21:16;14.80;99.90
10192;DHT22;17580;50.850;4.504;2022-10-14T05:23:44;14.70;99.90
10192;DHT22;17580;50.850;4.504;2022-10-14T05:26:11;14.70;99.90
10192;DHT22;17580;50.850;4.504;2022-10-14T05:28:38;14.70;99.90
10192;DHT22;17580;50.850;4.504;2022-10-14T05:31:05;14.70;99.90
10192;DHT22;17580;50.850;4.504;2022-10-14T05:33:32;14.70;99.90
10192;DHT22;17580;50.850;4.504;2022-10-14T05:36:00;14.70;99.90
10192;DHT22;17580;50.850;4.504;2022-10-14T05:38:30;14.70;99.90
10192;DHT22;17580;50.850;4.504;2022-10-14T05:40:59;14.80;99.90
10192;DHT22;17580;50.850;4.504;2022-10-14T05:43:26;14.70;99.90
10192;DHT22;17580;50.850;4.504;2022-10-14T05:45:53;14.70;99.90
10192;DHT22;17580;50.850;4.504;2022-10-14T05:48:20;14.70;99.90
10192;DHT22;17580;50.850;4.504;2022-10-14T05:50:47;14.70;99.90
10192;DHT22;17580;50.850;4.504;2022-10-14T05:53:14;14.70;99.90
10192;DHT22;17580;50.850;4.504;2022-10-14T05:55:41;14.70;99.90
10192;DHT22;17580;50.850;4.504;2022-10-14T05:58:09;14.70;99.90
10192;DHT22;17580;50.850;4.504;2022-10-14T06:00:36;14.70;99.90
10192;DHT22;17580;50.850;4.504;2022-10-14T06:03:03;14.80;99.90
10192;DHT22;17580;50.850;4.504;2022-10-14T06:05:30;14.80;99.90
10192;DHT22;17580;50.850;4.504;2022-10-14T06:08:01;14.80;99.90
10192;DHT22;17580;50.850;4.504;2022-10-14T06:10:27;14.80;99.90
10192;DHT22;17580;50.850;4.504;2022-10-14T06:12:55;14.80;99.90
10192;DHT22;17580;50.850;4.504;2022-10-14T06:15:23;14.80;99.90
10192;DHT22;17580;50.850;4.504;2022-10-14T06:17:50;14.70;99.90
10192;DHT22;17580;50.850;4.504;2022-10-14T06:20:17;14.70;99.90
10192;DHT22;17580;50.850;4.504;2022-10-14T06:22:44;14.70;99.90
10192;DHT22;17580;50.850;4.504;2022-10-14T06:25:11;14.70;99.90
10192;DHT22;17580;50.850;4.504;2022-10-14T06:27:38;14.70;99.90
10192;DHT22;17580;50.850;4.504;2022-10-14T06:30:05;14.70;99.90
10192;DHT22;17580;50.850;4.504;2022-10-14T06:32:34;14.70;99.90
10192;DHT22;17580;50.850;4.504;2022-10-14T06:35:01;14.70;99.90
10192;DHT22;17580;50.850;4.504;2022-10-14T06:37:28;14.70;99.90
10192;DHT22;17580;50.850;4.504;2022-10-14T06:39:54;14.80;99.90
10192;DHT22;17580;50.850;4.504;2022-10-14T06:42:21;14.80;99.90
10192;DHT22;17580;50.850;4.504;2022-10-14T06:44:48;14.80;99.90
10192;DHT22;17580;50.850;4.504;2022-10-14T06:47:15;14.80;99.90
10192;DHT22;17580;50.850;4.504;2022-10-14T06:49:44;14.80;99.90
10192;DHT22;17580;50.850;4.504;2022-10-14T06:52:10;14.80;99.90
10192;DHT22;17580;50.850;4.504;2022-10-14T06:54:37;14.80;99.90
10192;DHT22;17580;50.850;4.504;2022-10-14T06:57:04;14.80;99.90
10192;DHT22;17580;50.850;4.504;2022-10-14T06:59:31;14.80;99.90
10192;DHT22;17580;50.850;4.504;2022-10-14T07:01:58;14.80;99.90
10192;DHT22;17580;50.850;4.504;2022-10-14T07:04:25;14.90;99.90
10192;DHT22;17580;50.850;4.504;2022-10-14T07:06:54;14.90;99.90
10192;DHT22;17580;50.850;4.504;2022-10-14T07:09:22;14.90;99.90
10192;DHT22;17580;50.850;4.504;2022-10-14T07:11:49;14.80;99.90
10192;DHT22;17580;50.850;4.504;2022-10-14T07:14:16;14.80;99.90
10192;DHT22;17580;50.850;4.504;2022-10-14T07:16:43;14.90;99.90
10192;DHT22;17580;50.850;4.504;2022-10-14T07:19:10;14.90;99.90
10192;DHT22;17580;50.850;4.504;2022-10-14T07:21:37;14.90;99.90
10192;DHT22;17580;50.850;4.504;2022-10-14T07:24:07;14.90;99.90
10192;DHT22;17580;50.850;4.504;2022-10-14T07:26:34;14.90;99.90
10192;DHT22;17580;50.850;4.504;2022-10-14T07:29:03;15.00;99.90
10192;DHT22;17580;50.850;4.504;2022-10-14T07:31:30;15.00;99.90
10192;DHT22;17580;50.850;4.504;2022-10-14T07:33:58;15.00;99.90
10192;DHT22;17580;50.850;4.504;2022-10-14T07:36:26;15.10;99.90
10192;DHT22;17580;50.850;4.504;2022-10-14T07:38:53;15.00;99.90
10192;DHT22;17580;50.850;4.504;2022-10-14T07:41:24;15.10;99.90
10192;DHT22;17580;50.850;4.504;2022-10-14T07:43:52;15.10;99.90
10192;DHT22;17580;50.850;4.504;2022-10-14T07:46:21;15.00;99.90
10192;DHT22;17580;50.850;4.504;2022-10-14T07:48:54;15.10;99.90
10192;DHT22;17580;50.850;4.504;2022-10-14T07:51:21;15.10;99.90
10192;DHT22;17580;50.850;4.504;2022-10-14T07:53:48;15.10;99.90
10192;DHT22;17580;50.850;4.504;2022-10-14T07:56:17;15.10;99.90
10192;DHT22;17580;50.850;4.504;2022-10-14T07:58:45;15.10;99.90
10192;DHT22;17580;50.850;4.504;2022-10-14T08:01:13;15.20;99.90
10192;DHT22;17580;50.850;4.504;2022-10-14T08:03:41;15.20;99.90
10192;DHT22;17580;50.850;4.504;2022-10-14T08:06:08;15.30;99.90
10192;DHT22;17580;50.850;4.504;2022-10-14T08:08:35;15.40;99.90
10192;DHT22;17580;50.850;4.504;2022-10-14T08:11:05;15.30;99.90
10192;DHT22;17580;50.850;4.504;2022-10-14T08:13:33;15.30;99.90
10192;DHT22;17580;50.850;4.504;2022-10-14T08:16:02;15.20;99.90
10192;DHT22;17580;50.850;4.504;2022-10-14T08:18:29;15.30;99.90
10192;DHT22;17580;50.850;4.504;2022-10-14T08:20:55;15.40;99.90
10192;DHT22;17580;50.850;4.504;2022-10-14T08:23:22;15.40;99.90
10192;DHT22;17580;50.850;4.504;2022-10-14T08:25:50;15.40;99.90
10192;DHT22;17580;50.850;4.504;2022-10-14T08:28:17;15.40;99.90
10192;DHT22;17580;50.850;4.504;2022-10-14T08:30:44;15.40;99.90
10192;DHT22;17580;50.850;4.504;2022-10-14T08:33:14;15.40;99.90
10192;DHT22;17580;50.850;4.504;2022-10-14T08:35:41;15.40;99.90
10192;DHT22;17580;50.850;4.504;2022-10-14T08:38:07;15.30;99.90
10192;DHT22;17580;50.850;4.504;2022-10-14T08:40:48;15.30;99.90
10192;DHT22;17580;50.850;4.504;2022-10-14T08:43:23;15.40;99.90
10192;DHT22;17580;50.850;4.504;2022-10-14T08:45:55;15.40;99.90
10192;DHT22;17580;50.850;4.504;2022-10-14T08:48:27;15.40;99.90
10192;DHT22;17580;50.850;4.504;2022-10-14T08:50:58;15.40;99.90
10192;DHT22;17580;50.850;4.504;2022-10-14T08:53:31;15.40;99.90
10192;DHT22;17580;50.850;4.504;2022-10-14T08:56:00;15.40;99.90
10192;DHT22;17580;50.850;4.504;2022-10-14T08:58:32;15.50;99.90
10192;DHT22;17580;50.850;4.504;2022-10-14T09:01:03;15.50;99.90
10192;DHT22;17580;50.850;4.504;2022-10-14T09:03:34;15.50;99.90
10192;DHT22;17580;50.850;4.504;2022-10-14T09:06:03;15.50;99.90
10192;DHT22;17580;50.850;4.504;2022-10-14T09:08:33;15.60;99.90
10192;DHT22;17580;50.850;4.504;2022-10-14T09:11:03;15.60;99.90
10192;DHT22;17580;50.850;4.504;2022-10-14T09:13:34;15.60;99.90
10192;DHT22;17580;50.850;4.504;2022-10-14T09:16:07;15.60;99.90
10192;DHT22;17580;50.850;4.504;2022-10-14T09:18:37;15.50;99.90
10192;DHT22;17580;50.850;4.504;2022-10-14T09:21:23;15.50;99.90
10192;DHT22;17580;50.850;4.504;2022-10-14T09:23:56;15.50;99.90
10192;DHT22;17580;50.850;4.504;2022-10-14T09:26:27;15.60;99.90
10192;DHT22;17580;50.850;4.504;2022-10-14T09:28:55;15.60;99.90
10192;DHT22;17580;50.850;4.504;2022-10-14T09:31:22;15.60;99.90
10192;DHT22;17580;50.850;4.504;2022-10-14T09:33:50;15.60;99.90
10192;DHT22;17580;50.850;4.504;2022-10-14T09:36:19;15.70;99.90
10192;DHT22;17580;50.850;4.504;2022-10-14T09:38:47;15.60;99.90
10192;DHT22;17580;50.850;4.504;2022-10-14T09:41:22;15.80;99.90
10192;DHT22;17580;50.850;4.504;2022-10-14T09:44:15;15.80;99.90
10192;DHT22;17580;50.850;4.504;2022-10-14T09:46:50;15.80;99.90
10192;DHT22;17580;50.850;4.504;2022-10-14T09:49:24;16.00;99.90
10192;DHT22;17580;50.850;4.504;2022-10-14T09:51:51;16.00;99.90
10192;DHT22;17580;50.850;4.504;2022-10-14T09:54:23;16.10;99.90
10192;DHT22;17580;50.850;4.504;2022-10-14T09:56:59;16.10;99.90
10192;DHT22;17580;50.850;4.504;2022-10-14T09:59:26;16.10;99.90
10192;DHT22;17580;50.850;4.504;2022-10-14T10:01:55;16.30;99.90
10192;DHT22;17580;50.850;4.504;2022-10-14T10:04:32;16.20;99.90
10192;DHT22;17580;50.850;4.504;2022-10-14T10:07:02;16.10;99.90
10192;DHT22;17580;50.850;4.504;2022-10-14T10:09:30;16.10;99.90
10192;DHT22;17580;50.850;4.504;2022-10-14T10:11:57;16.10;99.90
10192;DHT22;17580;50.850;4.504;2022-10-14T10:14:25;16.00;99.90
10192;DHT22;17580;50.850;4.504;2022-10-14T10:17:16;16.10;99.90
10192;DHT22;17580;50.850;4.504;2022-10-14T10:19:46;16.00;99.90
10192;DHT22;17580;50.850;4.504;2022-10-14T10:22:21;16.00;99.90
10192;DHT22;17580;50.850;4.504;2022-10-14T10:24:49;16.00;99.90
10192;DHT22;17580;50.850;4.504;2022-10-14T10:27:23;16.00;99.90
10192;DHT22;17580;50.850;4.504;2022-10-14T10:29:50;16.00;99.90
10192;DHT22;17580;50.850;4.504;2022-10-14T10:32:23;15.90;99.90
10192;DHT22;17580;50.850;4.504;2022-10-14T10:35:15;15.90;99.90
10192;DHT22;17580;50.850;4.504;2022-10-14T10:37:54;16.00;99.90
10192;DHT22;17580;50.850;4.504;2022-10-14T10:40:35;16.00;99.90
10192;DHT22;17580;50.850;4.504;2022-10-14T10:43:21;16.10;99.90
10192;DHT22;17580;50.850;4.504;2022-10-14T10:46:04;16.10;99.90
10192;DHT22;17580;50.850;4.504;2022-10-14T10:48:41;16.10;99.90
10192;DHT22;17580;50.850;4.504;2022-10-14T10:51:15;16.00;99.90
10192;DHT22;17580;50.850;4.504;2022-10-14T10:53:56;16.10;99.90
10192;DHT22;17580;50.850;4.504;2022-10-14T10:56:31;16.10;99.90
10192;DHT22;17580;50.850;4.504;2022-10-14T10:59:27;16.30;99.90
10192;DHT22;17580;50.850;4.504;2022-10-14T11:02:15;16.30;99.90
10192;DHT22;17580;50.850;4.504;2022-10-14T11:04:49;16.20;99.90
10192;DHT22;17580;50.850;4.504;2022-10-14T11:07:24;16.10;99.90
10192;DHT22;17580;50.850;4.504;2022-10-14T11:10:15;16.10;99.90
10192;DHT22;17580;50.850;4.504;2022-10-14T11:13:07;16.40;99.90
10192;DHT22;17580;50.850;4.504;2022-10-14T11:15:45;16.40;99.90
10192;DHT22;17580;50.850;4.504;2022-10-14T11:18:21;16.60;99.90
10192;DHT22;17580;50.850;4.504;2022-10-14T11:21:02;16.70;99.90
10192;DHT22;17580;50.850;4.504;2022-10-14T11:23:45;16.80;99.90
10192;DHT22;17580;50.850;4.504;2022-10-14T11:26:25;16.70;99.90
10192;DHT22;17580;50.850;4.504;2022-10-14T11:29:02;16.50;99.90
10192;DHT22;17580;50.850;4.504;2022-10-14T11:31:35;16.40;99.90
10192;DHT22;17580;50.850;4.504;2022-10-14T11:34:29;16.40;99.90
10192;DHT22;17580;50.850;4.504;2022-10-14T11:37:05;16.40;99.90
10192;DHT22;17580;50.850;4.504;2022-10-14T11:39:41;16.50;99.90
10192;DHT22;17580;50.850;4.504;2022-10-14T11:42:40;16.50;99.90
10192;DHT22;17580;50.850;4.504;2022-10-14T11:45:27;16.50;99.90
10192;DHT22;17580;50.850;4.504;2022-10-14T11:48:03;16.70;99.90
10192;DHT22;17580;50.850;4.504;2022-10-14T11:50:38;16.70;99.90
10192;DHT22;17580;50.850;4.504;2022-10-14T11:53:11;16.70;99.90
10192;DHT22;17580;50.850;4.504;2022-10-14T11:55:45;16.60;99.90
10192;DHT22;17580;50.850;4.504;2022-10-14T11:58:14;16.60;99.90
10192;DHT22;17580;50.850;4.504;2022-10-14T12:00:44;16.60;99.90
10192;DHT22;17580;50.850;4.504;2022-10-14T12:03:19;16.60;99.90
10192;DHT22;17580;50.850;4.504;2022-10-14T12:05:53;16.70;99.90
10192;DHT22;17580;50.850;4.504;2022-10-14T12:08:25;17.00;99.90
10192;DHT22;17580;50.850;4.504;2022-10-14T12:11:02;17.80;99.90
10192;DHT22;17580;50.850;4.504;2022-10-14T12:13:33;18.40;99.90
10192;DHT22;17580;50.850;4.504;2022-10-14T12:16:02;18.80;99.90
10192;DHT22;17580;50.850;4.504;2022-10-14T12:18:30;18.60;99.90
10192;DHT22;17580;50.850;4.504;2022-10-14T12:21:04;18.50;99.90
10192;DHT22;17580;50.850;4.504;2022-10-14T12:23:37;18.30;99.90
10192;DHT22;17580;50.850;4.504;2022-10-14T12:26:14;18.10;99.90
10192;DHT22;17580;50.850;4.504;2022-10-14T12:28:42;18.00;99.90
10192;DHT22;17580;50.850;4.504;2022-10-14T12:31:21;18.50;99.90
10192;DHT22;17580;50.850;4.504;2022-10-14T12:36:56;17.90;99.90
10192;DHT22;17580;50.850;4.504;2022-10-14T12:39:31;17.70;99.90
10192;DHT22;17580;50.850;4.504;2022-10-14T12:42:02;17.60;99.90
10192;DHT22;17580;50.850;4.504;2022-10-14T12:44:39;17.50;99.90
10192;DHT22;17580;50.850;4.504;2022-10-14T12:47:16;17.40;99.90
10192;DHT22;17580;50.850;4.504;2022-10-14T12:49:47;17.50;99.90
10192;DHT22;17580;50.850;4.504;2022-10-14T12:52:21;17.50;99.90
10192;DHT22;17580;50.850;4.504;2022-10-14T12:54:49;17.50;99.90
10192;DHT22;17580;50.850;4.504;2022-10-14T12:57:25;17.50;99.90
10192;DHT22;17580;50.850;4.504;2022-10-14T12:59:54;17.60;99.90
10192;DHT22;17580;50.850;4.504;2022-10-14T13:02:28;17.60;99.90
10192;DHT22;17580;50.850;4.504;2022-10-14T13:04:59;17.80;99.90
10192;DHT22;17580;50.850;4.504;2022-10-14T13:07:38;18.40;99.90
10192;DHT22;17580;50.850;4.504;2022-10-14T13:10:24;18.70;99.90
10192;DHT22;17580;50.850;4.504;2022-10-14T13:12:53;18.90;99.90
10192;DHT22;17580;50.850;4.504;2022-10-14T13:15:50;18.60;99.90
10192;DHT22;17580;50.850;4.504;2022-10-14T13:18:46;18.30;99.90
10192;DHT22;17580;50.850;4.504;2022-10-14T13:21:28;18.30;99.90
10192;DHT22;17580;50.850;4.504;2022-10-14T13:23:58;18.40;99.90
10192;DHT22;17580;50.850;4.504;2022-10-14T13:26:36;18.30;99.90
10192;DHT22;17580;50.850;4.504;2022-10-14T13:29:20;18.30;99.90
10192;DHT22;17580;50.850;4.504;2022-10-14T13:31:53;18.20;99.90
10192;DHT22;17580;50.850;4.504;2022-10-14T13:34:31;18.10;99.90
10192;DHT22;17580;50.850;4.504;2022-10-14T13:37:11;18.00;99.90
10192;DHT22;17580;50.850;4.504;2022-10-14T13:39:46;17.90;99.90
10192;DHT22;17580;50.850;4.504;2022-10-14T13:42:18;17.90;99.90
10192;DHT22;17580;50.850;4.504;2022-10-14T13:44:48;18.00;99.90
10192;DHT22;17580;50.850;4.504;2022-10-14T13:47:19;18.00;99.90
10192;DHT22;17580;50.850;4.504;2022-10-14T13:49:49;18.00;99.90
10192;DHT22;17580;50.850;4.504;2022-10-14T13:52:20;18.00;99.90
10192;DHT22;17580;50.850;4.504;2022-10-14T13:54:48;17.80;99.90
10192;DHT22;17580;50.850;4.504;2022-10-14T13:57:30;17.90;99.90
10192;DHT22;17580;50.850;4.504;2022-10-14T13:59:58;17.80;99.90
10192;DHT22;17580;50.850;4.504;2022-10-14T14:02:26;17.70;99.90
10192;DHT22;17580;50.850;4.504;2022-10-14T14:04:55;17.60;99.90
10192;DHT22;17580;50.850;4.504;2022-10-14T14:07:24;17.50;99.90
10192;DHT22;17580;50.850;4.504;2022-10-14T14:09:57;17.50;99.90
10192;DHT22;17580;50.850;4.504;2022-10-14T14:12:26;17.60;99.90
10192;DHT22;17580;50.850;4.504;2022-10-14T14:14:53;17.60;99.90
10192;DHT22;17580;50.850;4.504;2022-10-14T14:17:23;17.60;99.90
10192;DHT22;17580;50.850;4.504;2022-10-14T14:19:51;17.50;99.90
10192;DHT22;17580;50.850;4.504;2022-10-14T14:22:21;17.50;99.90
10192;DHT22;17580;50.850;4.504;2022-10-14T14:24:49;17.50;99.90
10192;DHT22;17580;50.850;4.504;2022-10-14T14:27:18;17.50;99.90
10192;DHT22;17580;50.850;4.504;2022-10-14T14:29:48;17.40;99.90
10192;DHT22;17580;50.850;4.504;2022-10-14T14:32:17;17.40;99.90
10192;DHT22;17580;50.850;4.504;2022-10-14T14:34:49;17.30;99.90
10192;DHT22;17580;50.850;4.504;2022-10-14T14:37:23;17.20;99.90
10192;DHT22;17580;50.850;4.504;2022-10-14T14:39:55;17.20;99.90
10192;DHT22;17580;50.850;4.504;2022-10-14T14:42:23;17.20;99.90
10192;DHT22;17580;50.850;4.504;2022-10-14T14:44:53;17.20;99.90
10192;DHT22;17580;50.850;4.504;2022-10-14T14:47:21;17.20;99.90
10192;DHT22;17580;50.850;4.504;2022-10-14T14:49:51;17.10;99.90
10192;DHT22;17580;50.850;4.504;2022-10-14T14:52:18;17.10;99.90
10192;DHT22;17580;50.850;4.504;2022-10-14T14:54:46;17.10;99.90
10192;DHT22;17580;50.850;4.504;2022-10-14T14:57:15;17.10;99.90
10192;DHT22;17580;50.850;4.504;2022-10-14T14:59:49;17.10;99.90
10192;DHT22;17580;50.850;4.504;2022-10-14T15:02:19;17.10;99.90
10192;DHT22;17580;50.850;4.504;2022-10-14T15:04:46;17.10;99.90
10192;DHT22;17580;50.850;4.504;2022-10-14T15:07:25;17.10;99.90
10192;DHT22;17580;50.850;4.504;2022-10-14T15:09:54;17.10;99.90
10192;DHT22;17580;50.850;4.504;2022-10-14T15:12:24;17.00;99.90
10192;DHT22;17580;50.850;4.504;2022-10-14T15:14:53;17.10;99.90
10192;DHT22;17580;50.850;4.504;2022-10-14T15:17:26;17.10;99.90
10192;DHT22;17580;50.850;4.504;2022-10-14T15:19:53;17.10;99.90
10192;DHT22;17580;50.850;4.504;2022-10-14T15:22:28;17.00;99.90
10192;DHT22;17580;50.850;4.504;2022-10-14T15:25:00;17.00;99.90
10192;DHT22;17580;50.850;4.504;2022-10-14T15:27:46;17.00;99.90
10192;DHT22;17580;50.850;4.504;2022-10-14T15:30:22;17.00;99.90
10192;DHT22;17580;50.850;4.504;2022-10-14T15:32:54;16.90;99.90
10192;DHT22;17580;50.850;4.504;2022-10-14T15:35:22;16.90;99.90
10192;DHT22;17580;50.850;4.504;2022-10-14T15:37:51;16.90;99.90
10192;DHT22;17580;50.850;4.504;2022-10-14T15:40:21;16.90;99.90
10192;DHT22;17580;50.850;4.504;2022-10-14T15:42:49;16.90;99.90
10192;DHT22;17580;50.850;4.504;2022-10-14T15:45:16;16.90;99.90
10192;DHT22;17580;50.850;4.504;2022-10-14T15:47:44;16.90;99.90
10192;DHT22;17580;50.850;4.504;2022-10-14T15:50:16;16.90;99.90
10192;DHT22;17580;50.850;4.504;2022-10-14T15:52:43;16.90;99.90
10192;DHT22;17580;50.850;4.504;2022-10-14T15:55:17;16.90;99.90
10192;DHT22;17580;50.850;4.504;2022-10-14T15:57:45;16.90;99.90